• Join FlightAware (Why Join?)
  • Login
  • US Flag 
08:04AM EDT


 

Airport Tracker/Info


-or-


 

Live Flight TrackerFlight Track Log ✈ N373LD ✈ 01-Apr-2014 ✈ KBGD - KCOD

Flight Track Log - Related Links

Times and Time Zones

All times are in EDT time to prevent confusion due to time zone crossing. See the N373LD flight status page for this flight to view local times or setup timezone preferences in your user account.

Time Position Orientation Groundspeed Altitude Reporting Facility
EDT Latitude Longitude Course Direction KTS MPH feet Rate Location/Type
11:55AM 35.8456 -101.4889 329° Northwest 153 176 8,600  Level Albuquerque Center
11:56AM 35.8825 -101.5172 328° Northwest 153 176 10,000 1,500 Climbing Albuquerque Center
11:57AM 35.9269 -101.5486 330° Northwest 154 177 11,700 1,440 Climbing Albuquerque Center
11:58AM 35.9644 -101.5764 329° Northwest 156 180 13,000 1,320 Climbing Albuquerque Center
11:59AM 36.0025 -101.6061 328° Northwest 159 183 14,500 1,320 Climbing Albuquerque Center
12:00PM 36.0400 -101.6344 329° Northwest 159 183 15,800 1,200 Climbing Albuquerque Center
12:01PM 36.0786 -101.6647 328° Northwest 161 185 17,000 1,080 Climbing Albuquerque Center
12:02PM 36.1186 -101.6956 328° Northwest 165 190 18,100 1,260 Climbing Albuquerque Center
12:03PM 36.1650 -101.7300 329° Northwest 165 190 19,700 1,320 Climbing Albuquerque Center
12:04PM 36.2050 -101.7594 329° Northwest 165 190 20,900 1,140 Climbing Albuquerque Center
12:05PM 36.2444 -101.7897 328° Northwest 166 191 22,100 1,140 Climbing Albuquerque Center
12:06PM 36.2836 -101.8189 329° Northwest 166 191 23,300 1,140 Climbing Albuquerque Center
12:07PM 36.3225 -101.8483 329° Northwest 166 191 24,500 1,020 Climbing Albuquerque Center
12:08PM 36.3617 -101.8781 329° Northwest 165 190 25,500 660 Climbing Albuquerque Center
12:09PM 36.4153 -101.9181 329° Northwest 183 211 25,900 180 Climbing Albuquerque Center
12:10PM 36.4647 -101.9558 328° Northwest 201 231 25,900  Level Albuquerque Center
12:11PM 36.5167 -101.9958 328° Northwest 215 247 25,900  Level Albuquerque Center
12:12PM 36.5686 -102.0356 328° Northwest 216 249 25,900  Level Albuquerque Center
12:13PM 36.6244 -102.0769 329° Northwest 216 249 25,900  Level Albuquerque Center
12:15PM 36.6733 -102.1142 329° Northwest 216 249 25,900  Level Albuquerque Center
12:16PM 36.7308 -102.1578 329° Northwest 216 249 25,900  Level Albuquerque Center
12:17PM 36.7783 -102.1950 328° Northwest 215 247 25,900  Level Albuquerque Center
12:18PM 36.8319 -102.2361 328° Northwest 214 246 25,900  Level Albuquerque Center
12:19PM 36.8847 -102.2767 328° Northwest 215 247 25,900  Level Albuquerque Center
12:20PM 36.9447 -102.3225 329° Northwest 221 254 25,900  Level Albuquerque Center
12:21PM 36.9928 -102.3614 327° Northwest 221 254 25,900  Level Albuquerque Center
12:22PM 37.0431 -102.3994 329° Northwest 218 251 25,900  Level Albuquerque Center
12:23PM 37.1014 -102.4439 329° Northwest 219 252 25,900  Level Albuquerque Center
12:24PM 37.1531 -102.4856 327° Northwest 219 252 25,900  Level Albuquerque Center
12:25PM 37.2089 -102.5294 328° Northwest 216 249 25,900  Level Albuquerque Center
12:26PM 37.2569 -102.5664 329° Northwest 213 245 25,900  Level Albuquerque Center
12:27PM 37.3067 -102.6042 329° Northwest 213 245 25,900  Level Albuquerque Center
12:28PM 37.3608 -102.6472 328° Northwest 212 244 25,900  Level Albuquerque Center
12:29PM 37.4086 -102.6847 328° Northwest 212 244 25,900  Level Albuquerque Center
12:30PM 37.4642 -102.7275 329° Northwest 212 244 25,900  Level Albuquerque Center
12:31PM 37.5103 -102.7644 328° Northwest 209 241 25,900  Level Albuquerque Center
12:32PM 37.5633 -102.8069 328° Northwest 207 238 25,900  Level Albuquerque Center
12:33PM 37.6106 -102.8453 327° Northwest 207 238 25,900  Level Albuquerque Center
12:34PM 37.6642 -102.8875 328° Northwest 207 238 25,900  Level Albuquerque Center
12:35PM 37.7217 -102.9308 329° Northwest 210 242 25,900  Level Denver Center
12:37PM 37.7681 -102.9678 328° Northwest 210 242 25,900  Level Denver Center
12:38PM 37.8317 -103.0186 328° Northwest 210 242 25,900  Level Denver Center
12:39PM 37.8789 -103.0556 328° Northwest 210 242 25,900  Level Denver Center
12:40PM 37.9350 -103.1003 328° Northwest 211 243 25,900  Level Denver Center
12:41PM 37.9833 -103.1392 328° Northwest 213 245 25,900  Level Denver Center
12:42PM 38.0397 -103.1842 328° Northwest 213 245 25,900  Level Denver Center
12:43PM 38.0786 -103.2156 328° Northwest 213 245 25,900  Level Denver Center
12:44PM 38.1419 -103.2644 329° Northwest 212 244 25,900  Level Denver Center
12:45PM 38.1883 -103.3033 327° Northwest 209 241 25,900  Level Denver Center
12:46PM 38.2431 -103.3464 328° Northwest 208 239 25,900  Level Denver Center
12:47PM 38.2886 -103.3847 327° Northwest 207 238 25,900  Level Denver Center
12:48PM 38.3431 -103.4272 329° Northwest 207 238 25,900  Level Denver Center
12:49PM 38.3831 -103.4578 329° Northwest 207 238 25,900  Level Denver Center
12:50PM 38.4453 -103.5075 328° Northwest 207 238 25,900  Level Denver Center
12:51PM 38.4931 -103.5447 329° Northwest 208 239 25,900  Level Denver Center
12:52PM 38.5489 -103.5886 328° Northwest 211 243 25,900  Level Denver Center
12:53PM 38.5964 -103.6250 329° Northwest 210 242 25,900  Level Denver Center
12:54PM 38.6528 -103.6661 330° Northwest 210 242 25,900  Level Denver Center
12:55PM 38.7000 -103.7014 330° Northwest 207 238 25,900  Level Denver Center
12:56PM 38.7556 -103.7425 330° Northwest 206 237 25,900  Level Denver Center
12:57PM 38.8036 -103.7772 331° Northwest 206 237 25,900  Level Denver Center
12:58PM 38.8536 -103.8128 331° Northwest 209 241 25,900  Level Denver Center
12:59PM 38.9022 -103.8533 327° Northwest 208 239 25,900  Level Denver Center
01:00PM 38.9614 -103.9017 328° Northwest 209 241 25,900  Level Denver Center
01:02PM 39.0200 -103.9492 328° Northwest 208 239 25,900  Level Denver Center
01:03PM 39.0689 -103.9917 326° Northwest 209 241 25,900  Level Denver Center
01:04PM 39.1172 -104.0311 328° Northwest 207 238 25,900  Level Denver Center
01:05PM 39.1664 -104.0706 328° Northwest 208 239 25,900  Level Denver Center
01:06PM 39.2331 -104.1278 326° Northwest 207 238 25,900  Level Denver Center
01:07PM 39.2792 -104.1658 327° Northwest 201 231 25,900  Level Denver Center
01:08PM 39.3250 -104.2058 326° Northwest 201 231 25,900  Level Denver Center
01:09PM 39.3706 -104.2439 327° Northwest 197 227 25,900  Level Denver Center
01:10PM 39.4169 -104.2822 327° Northwest 197 227 25,900  Level Denver Center
01:11PM 39.4733 -104.3300 327° Northwest 200 230 25,900  Level Denver Center
01:12PM 39.5181 -104.3672 327° Northwest 196 226 25,900  Level Denver Center
01:13PM 39.5636 -104.4056 327° Northwest 196 226 25,900  Level Denver Center
01:14PM 39.6092 -104.4447 326° Northwest 197 227 25,900  Level Denver Center
01:15PM 39.6447 -104.4742 327° Northwest 195 224 25,900  Level Denver Center
01:16PM 39.7089 -104.5289 327° Northwest 199 229 25,900  Level Denver Center
01:17PM 39.7536 -104.5678 326° Northwest 198 228 25,900  Level Denver Center
01:18PM 39.7989 -104.6050 328° Northwest 197 227 25,900  Level Denver Center
01:19PM 39.8431 -104.6433 326° Northwest 196 226 25,900  Level Denver Center
01:20PM 39.8886 -104.6828 326° Northwest 196 226 25,900  Level Denver Center
01:21PM 39.9444 -104.7297 327° Northwest 197 227 25,900  Level Denver Center
01:22PM 39.9903 -104.7700 326° Northwest 198 228 25,900  Level Denver Center
01:23PM 40.0289 -104.8025 327° Northwest 205 236 25,900  Level Denver Center
01:25PM 40.0844 -104.8511 326° Northwest 204 235 25,900  Level Denver Center
01:26PM 40.1322 -104.8917 327° Northwest 205 236 25,900  Level Denver Center
01:27PM 40.1792 -104.9331 326° Northwest 203 234 25,900  Level Denver Center
01:28PM 40.2364 -104.9828 326° Northwest 206 237 25,900  Level Denver Center
01:29PM 40.2861 -105.0247 327° Northwest 211 243 25,900  Level Denver Center
01:30PM 40.3353 -105.0683 326° Northwest 211 243 25,900 420 Level Denver Center
01:31PM 40.3839 -105.1114 326° Northwest 213 245 26,800 840 Climbing Denver Center
01:32PM 40.4256 -105.1469 327° Northwest 186 214 27,700 480 Climbing Denver Center
01:33PM 40.4694 -105.1856 326° Northwest 185 213 27,900 60 Climbing Denver Center
01:34PM 40.5261 -105.2347 327° Northwest 201 231 27,900  Level Denver Center
01:35PM 40.5753 -105.2778 326° Northwest 208 239 27,900  Level Denver Center
01:36PM 40.6258 -105.3228 326° Northwest 215 247 27,900  Level Denver Center
01:37PM 40.6753 -105.3667 326° Northwest 217 250 27,900  Level Denver Center
01:38PM 40.7219 -105.4069 327° Northwest 206 237 27,900  Level Denver Center
01:39PM 40.7664 -105.4469 326° Northwest 164 189 27,900  Level Denver Center
01:40PM 40.8111 -105.4872 326° Northwest 161 185 27,900  Level Denver Center
01:41PM 40.8525 -105.5244 326° Northwest 173 199 27,900  Level Denver Center
01:42PM 40.8933 -105.5606 326° Northwest 177 204 27,900  Level Denver Center
01:43PM 40.9367 -105.5981 327° Northwest 182 209 27,900  Level Denver Center
01:44PM 40.9847 -105.6417 326° Northwest 204 235 27,900  Level Denver Center
01:45PM 41.0383 -105.6906 325° Northwest 216 249 27,900  Level Denver Center
01:46PM 41.0956 -105.7403 327° Northwest 220 253 27,900  Level Denver Center
01:47PM 41.1453 -105.7864 325° Northwest 223 257 27,900  Level Denver Center
01:48PM 41.2039 -105.8378 327° Northwest 224 258 27,900  Level Denver Center
01:49PM 41.2561 -105.8858 325° Northwest 233 268 27,900  Level Denver Center
01:51PM 41.2978 -105.9225 327° Northwest 230 265 27,900  Level Denver Center
01:52PM 41.3497 -105.9703 325° Northwest 179 206 27,900  Level Denver Center
01:53PM 41.3919 -106.0083 326° Northwest 189 217 27,900 -120 Level Denver Center
01:54PM 41.4464 -106.0581 326° Northwest 209 241 27,700 -360 Descending Denver Center
01:55PM 41.4972 -106.1036 326° Northwest 225 259 27,200 -540 Descending Denver Center
01:56PM 41.5547 -106.1567 325° Northwest 225 259 26,700 -480 Descending Denver Center
01:57PM 41.6056 -106.2017 327° Northwest 226 260 26,200 -540 Descending Denver Center
01:58PM 41.6706 -106.2625 325° Northwest 226 260 25,600 -540 Descending Denver Center
01:59PM 41.7197 -106.3078 326° Northwest 224 258 25,100 -540 Descending Denver Center
02:00PM 41.7819 -106.3633 326° Northwest 231 266 24,600 -540 Descending Denver Center
02:01PM 41.8367 -106.4133 326° Northwest 243 280 24,100 -360 Descending Denver Center
02:02PM 41.8992 -106.4717 325° Northwest 245 282 23,900 -120 Descending Denver Center
02:03PM 41.9431 -106.5117 326° Northwest 244 281 23,900  Level Denver Center
02:04PM 42.0125 -106.5753 326° Northwest 252 290 23,900  Level Denver Center
02:05PM 42.0764 -106.6347 325° Northwest 253 291 23,900  Level Denver Center
02:06PM 42.1294 -106.6853 325° Northwest 247 284 23,900  Level Denver Center
02:07PM 42.1844 -106.7367 325° Northwest 249 287 23,900  Level Denver Center
02:08PM 42.2483 -106.7958 326° Northwest 250 288 23,900  Level Denver Center
02:09PM 42.3044 -106.8481 325° Northwest 251 289 23,900  Level Denver Center
02:10PM 42.3683 -106.9078 325° Northwest 251 289 23,900  Level Denver Center
02:11PM 42.4233 -106.9606 325° Northwest 252 290 23,900  Level Denver Center
02:12PM 42.4875 -107.0208 325° Northwest 251 289 23,900  Level Denver Center
02:13PM 42.5433 -107.0719 326° Northwest 251 289 23,900  Level Denver Center
02:14PM 42.6042 -107.1328 324° Northwest 248 285 23,900  Level Salt Lake Center
02:15PM 42.6594 -107.1836 326° Northwest 250 288 23,900  Level Salt Lake Center
02:16PM 42.7231 -107.2447 325° Northwest 250 288 23,900  Level Salt Lake Center
02:18PM 42.7772 -107.2969 325° Northwest 249 287 23,900  Level Salt Lake Center
02:19PM 42.8214 -107.3392 325° Northwest 249 287 23,900  Level Denver Center
02:20PM 42.8836 -107.3981 325° Northwest 248 285 23,900  Level Denver Center
02:21PM 42.9508 -107.4647 324° Northwest 250 288 23,900  Level Salt Lake Center
02:22PM 43.0069 -107.5192 325° Northwest 248 285 23,900  Level Salt Lake Center
02:23PM 43.0639 -107.5747 325° Northwest 250 288 23,900  Level Salt Lake Center
02:24PM 43.1189 -107.6286 324° Northwest 248 285 23,900  Level Salt Lake Center
02:25PM 43.1850 -107.6947 324° Northwest 247 284 23,900  Level Salt Lake Center
02:26PM 43.2394 -107.7467 325° Northwest 245 282 23,900  Level Salt Lake Center
02:27PM 43.2956 -107.8003 325° Northwest 245 282 23,900  Level Salt Lake Center
02:28PM 43.3531 -107.8553 325° Northwest 248 285 23,900  Level Salt Lake Center
02:29PM 43.4086 -107.9053 327° Northwest 246 283 24,000  Climbing Salt Lake Center
02:30PM 43.4636 -107.9606 324° Northwest 244 281 24,000  Level Salt Lake Center
02:31PM 43.5308 -108.0258 325° Northwest 245 282 24,000  Level Salt Lake Center
02:32PM 43.5864 -108.0828 323° Northwest 245 282 24,000  Level Salt Lake Center
02:33PM 43.6428 -108.1383 325° Northwest 246 283 24,000  Level Salt Lake Center
02:34PM 43.6989 -108.1956 324° Northwest 247 284 24,000  Level Salt Lake Center
02:35PM 43.7547 -108.2519 324° Northwest 248 285 24,000  Level Salt Lake Center
02:36PM 43.8106 -108.3078 324° Northwest 248 285 24,000  Level Salt Lake Center
02:37PM 43.8667 -108.3633 324° Northwest 248 285 24,000  Level Salt Lake Center
02:38PM 43.9336 -108.4306 324° Northwest 248 285 24,000  Level Salt Lake Center
02:39PM 43.9897 -108.4864 324° Northwest 248 285 24,000  Level Salt Lake Center
02:40PM 44.0444 -108.5417 324° Northwest 248 285 24,000 -120 Level Salt Lake Center
02:41PM 44.1011 -108.5997 324° Northwest 248 285 23,800 -840 Descending Salt Lake Center
02:42PM 44.1561 -108.6550 324° Northwest 248 285 22,300 -1,920 Descending Salt Lake Center
02:43PM 44.2111 -108.7103 324° Northwest 247 284 19,900 -2,400 Descending Salt Lake Center
02:44PM 44.2658 -108.7656 324° Northwest 247 284 17,500 -2,400 Descending Salt Lake Center